sensor_id;sensor_type;location;lat;lon;timestamp;P1;durP1;ratioP1;P2;durP2;ratioP2
65599;SDS011;52272;-29.642;-50.764;2022-07-24T00:01:05;7.57;;;5.10;;
65599;SDS011;52272;-29.642;-50.764;2022-07-24T00:03:36;8.18;;;5.88;;
65599;SDS011;52272;-29.642;-50.764;2022-07-24T00:06:08;9.95;;;4.68;;
65599;SDS011;52272;-29.642;-50.764;2022-07-24T00:08:39;5.47;;;4.47;;
65599;SDS011;52272;-29.642;-50.764;2022-07-24T00:11:09;8.02;;;4.25;;
65599;SDS011;52272;-29.642;-50.764;2022-07-24T00:13:40;5.45;;;3.80;;
65599;SDS011;52272;-29.642;-50.764;2022-07-24T00:16:10;6.07;;;4.10;;
65599;SDS011;52272;-29.642;-50.764;2022-07-24T00:18:43;8.40;;;3.70;;
65599;SDS011;52272;-29.642;-50.764;2022-07-24T00:21:13;6.20;;;4.00;;
65599;SDS011;52272;-29.642;-50.764;2022-07-24T00:23:43;4.40;;;3.83;;
65599;SDS011;52272;-29.642;-50.764;2022-07-24T00:26:13;7.05;;;4.70;;
65599;SDS011;52272;-29.642;-50.764;2022-07-24T00:28:44;8.82;;;5.03;;
65599;SDS011;52272;-29.642;-50.764;2022-07-24T00:31:14;10.82;;;5.10;;
65599;SDS011;52272;-29.642;-50.764;2022-07-24T00:33:45;8.50;;;4.60;;
65599;SDS011;52272;-29.642;-50.764;2022-07-24T00:36:17;8.50;;;5.00;;
65599;SDS011;52272;-29.642;-50.764;2022-07-24T00:38:48;6.18;;;4.90;;
65599;SDS011;52272;-29.642;-50.764;2022-07-24T00:41:18;7.25;;;4.38;;
65599;SDS011;52272;-29.642;-50.764;2022-07-24T00:46:51;7.22;;;4.82;;
65599;SDS011;52272;-29.642;-50.764;2022-07-24T00:49:22;7.00;;;4.85;;
65599;SDS011;52272;-29.642;-50.764;2022-07-24T00:51:53;5.05;;;4.55;;
65599;SDS011;52272;-29.642;-50.764;2022-07-24T00:54:24;6.07;;;4.43;;
65599;SDS011;52272;-29.642;-50.764;2022-07-24T00:56:54;6.35;;;4.70;;
65599;SDS011;52272;-29.642;-50.764;2022-07-24T00:59:24;10.20;;;4.97;;
65599;SDS011;52272;-29.642;-50.764;2022-07-24T01:01:55;21.50;;;5.00;;
65599;SDS011;52272;-29.642;-50.764;2022-07-24T01:04:25;16.85;;;4.20;;
65599;SDS011;52272;-29.642;-50.764;2022-07-24T01:06:55;7.40;;;3.85;;
65599;SDS011;52272;-29.642;-50.764;2022-07-24T01:09:26;12.35;;;3.60;;
65599;SDS011;52272;-29.642;-50.764;2022-07-24T01:11:56;8.93;;;3.38;;
65599;SDS011;52272;-29.642;-50.764;2022-07-24T01:14:27;2.95;;;2.65;;
65599;SDS011;52272;-29.642;-50.764;2022-07-24T01:17:00;3.63;;;3.33;;
65599;SDS011;52272;-29.642;-50.764;2022-07-24T01:19:31;3.47;;;3.17;;
65599;SDS011;52272;-29.642;-50.764;2022-07-24T01:22:01;3.20;;;2.92;;
65599;SDS011;52272;-29.642;-50.764;2022-07-24T01:24:32;4.45;;;3.58;;
65599;SDS011;52272;-29.642;-50.764;2022-07-24T01:27:02;7.88;;;3.95;;
65599;SDS011;52272;-29.642;-50.764;2022-07-24T01:29:33;7.10;;;4.15;;
65599;SDS011;52272;-29.642;-50.764;2022-07-24T01:32:04;9.02;;;4.50;;
65599;SDS011;52272;-29.642;-50.764;2022-07-24T01:34:35;10.75;;;7.32;;
65599;SDS011;52272;-29.642;-50.764;2022-07-24T01:37:05;14.07;;;9.60;;
65599;SDS011;52272;-29.642;-50.764;2022-07-24T01:39:36;12.25;;;9.40;;
65599;SDS011;52272;-29.642;-50.764;2022-07-24T01:42:06;12.85;;;9.27;;
65599;SDS011;52272;-29.642;-50.764;2022-07-24T01:44:38;11.75;;;9.25;;
65599;SDS011;52272;-29.642;-50.764;2022-07-24T01:47:08;11.65;;;9.13;;
65599;SDS011;52272;-29.642;-50.764;2022-07-24T01:49:38;8.98;;;7.30;;
65599;SDS011;52272;-29.642;-50.764;2022-07-24T01:52:08;6.43;;;5.50;;
65599;SDS011;52272;-29.642;-50.764;2022-07-24T01:54:42;9.27;;;6.32;;
65599;SDS011;52272;-29.642;-50.764;2022-07-24T01:57:12;9.65;;;6.38;;
65599;SDS011;52272;-29.642;-50.764;2022-07-24T01:59:47;8.00;;;6.20;;
65599;SDS011;52272;-29.642;-50.764;2022-07-24T02:04:47;10.00;;;8.35;;
65599;SDS011;52272;-29.642;-50.764;2022-07-24T02:09:46;10.55;;;7.75;;
65599;SDS011;52272;-29.642;-50.764;2022-07-24T02:12:18;12.02;;;7.55;;
65599;SDS011;52272;-29.642;-50.764;2022-07-24T02:14:48;11.52;;;7.80;;
65599;SDS011;52272;-29.642;-50.764;2022-07-24T02:17:19;13.73;;;8.30;;
65599;SDS011;52272;-29.642;-50.764;2022-07-24T02:19:49;12.27;;;8.68;;
65599;SDS011;52272;-29.642;-50.764;2022-07-24T02:22:20;16.85;;;8.90;;
65599;SDS011;52272;-29.642;-50.764;2022-07-24T02:24:50;12.65;;;9.77;;
65599;SDS011;52272;-29.642;-50.764;2022-07-24T02:27:21;12.45;;;8.63;;
65599;SDS011;52272;-29.642;-50.764;2022-07-24T02:29:51;11.70;;;7.97;;
65599;SDS011;52272;-29.642;-50.764;2022-07-24T02:32:21;10.50;;;7.78;;
65599;SDS011;52272;-29.642;-50.764;2022-07-24T02:34:51;11.07;;;7.80;;
65599;SDS011;52272;-29.642;-50.764;2022-07-24T02:37:21;12.30;;;7.72;;
65599;SDS011;52272;-29.642;-50.764;2022-07-24T02:39:52;11.27;;;8.27;;
65599;SDS011;52272;-29.642;-50.764;2022-07-24T02:42:22;11.55;;;8.32;;
65599;SDS011;52272;-29.642;-50.764;2022-07-24T02:44:52;10.10;;;7.93;;
65599;SDS011;52272;-29.642;-50.764;2022-07-24T02:47:22;10.90;;;8.35;;
65599;SDS011;52272;-29.642;-50.764;2022-07-24T02:49:53;9.95;;;8.52;;
65599;SDS011;52272;-29.642;-50.764;2022-07-24T02:52:24;10.68;;;8.52;;
65599;SDS011;52272;-29.642;-50.764;2022-07-24T02:54:54;12.13;;;8.43;;
65599;SDS011;52272;-29.642;-50.764;2022-07-24T02:57:24;11.75;;;7.93;;
65599;SDS011;52272;-29.642;-50.764;2022-07-24T02:59:54;10.13;;;8.48;;
65599;SDS011;52272;-29.642;-50.764;2022-07-24T03:02:24;11.13;;;9.23;;
65599;SDS011;52272;-29.642;-50.764;2022-07-24T03:04:55;12.48;;;9.43;;
65599;SDS011;52272;-29.642;-50.764;2022-07-24T03:07:25;9.15;;;7.20;;
65599;SDS011;52272;-29.642;-50.764;2022-07-24T03:09:56;9.38;;;7.32;;
65599;SDS011;52272;-29.642;-50.764;2022-07-24T03:12:26;10.07;;;7.25;;
65599;SDS011;52272;-29.642;-50.764;2022-07-24T03:14:57;8.45;;;6.78;;
65599;SDS011;52272;-29.642;-50.764;2022-07-24T03:17:27;7.57;;;6.10;;
65599;SDS011;52272;-29.642;-50.764;2022-07-24T03:19:57;10.13;;;6.45;;
65599;SDS011;52272;-29.642;-50.764;2022-07-24T03:22:28;9.52;;;6.50;;
65599;SDS011;52272;-29.642;-50.764;2022-07-24T03:24:58;8.23;;;6.03;;
65599;SDS011;52272;-29.642;-50.764;2022-07-24T03:27:30;10.25;;;7.18;;
65599;SDS011;52272;-29.642;-50.764;2022-07-24T03:30:00;12.35;;;8.35;;
65599;SDS011;52272;-29.642;-50.764;2022-07-24T03:32:30;12.30;;;7.78;;
65599;SDS011;52272;-29.642;-50.764;2022-07-24T03:35:01;12.60;;;7.50;;
65599;SDS011;52272;-29.642;-50.764;2022-07-24T03:37:32;13.75;;;8.02;;
65599;SDS011;52272;-29.642;-50.764;2022-07-24T03:40:03;10.82;;;7.93;;
65599;SDS011;52272;-29.642;-50.764;2022-07-24T03:42:33;14.98;;;8.85;;
65599;SDS011;52272;-29.642;-50.764;2022-07-24T03:45:04;13.35;;;8.55;;
65599;SDS011;52272;-29.642;-50.764;2022-07-24T03:47:35;12.48;;;9.05;;
65599;SDS011;52272;-29.642;-50.764;2022-07-24T03:52:35;9.27;;;7.82;;
65599;SDS011;52272;-29.642;-50.764;2022-07-24T03:55:05;14.38;;;9.52;;
65599;SDS011;52272;-29.642;-50.764;2022-07-24T03:57:38;14.07;;;10.45;;
65599;SDS011;52272;-29.642;-50.764;2022-07-24T04:00:08;15.13;;;9.93;;
65599;SDS011;52272;-29.642;-50.764;2022-07-24T04:02:40;14.27;;;7.90;;
65599;SDS011;52272;-29.642;-50.764;2022-07-24T04:05:10;7.70;;;5.68;;
65599;SDS011;52272;-29.642;-50.764;2022-07-24T04:07:42;8.55;;;5.40;;
65599;SDS011;52272;-29.642;-50.764;2022-07-24T04:10:12;21.52;;;6.68;;
65599;SDS011;52272;-29.642;-50.764;2022-07-24T04:12:43;9.23;;;5.70;;
65599;SDS011;52272;-29.642;-50.764;2022-07-24T04:17:43;7.63;;;4.80;;
65599;SDS011;52272;-29.642;-50.764;2022-07-24T04:20:13;6.10;;;4.50;;
65599;SDS011;52272;-29.642;-50.764;2022-07-24T04:22:44;5.70;;;4.72;;
65599;SDS011;52272;-29.642;-50.764;2022-07-24T04:25:18;8.43;;;5.80;;
65599;SDS011;52272;-29.642;-50.764;2022-07-24T04:27:49;9.57;;;5.82;;
65599;SDS011;52272;-29.642;-50.764;2022-07-24T04:32:48;9.75;;;6.03;;
65599;SDS011;52272;-29.642;-50.764;2022-07-24T04:35:19;9.43;;;6.43;;
65599;SDS011;52272;-29.642;-50.764;2022-07-24T04:37:49;10.98;;;6.28;;
65599;SDS011;52272;-29.642;-50.764;2022-07-24T04:40:20;10.60;;;6.30;;
65599;SDS011;52272;-29.642;-50.764;2022-07-24T04:42:50;8.60;;;6.00;;
65599;SDS011;52272;-29.642;-50.764;2022-07-24T04:45:20;9.93;;;5.97;;
65599;SDS011;52272;-29.642;-50.764;2022-07-24T04:47:50;12.05;;;6.00;;
65599;SDS011;52272;-29.642;-50.764;2022-07-24T04:50:21;10.15;;;5.90;;
65599;SDS011;52272;-29.642;-50.764;2022-07-24T04:52:54;8.75;;;5.78;;
65599;SDS011;52272;-29.642;-50.764;2022-07-24T04:55:24;8.40;;;6.00;;
65599;SDS011;52272;-29.642;-50.764;2022-07-24T04:57:54;10.32;;;6.85;;
65599;SDS011;52272;-29.642;-50.764;2022-07-24T05:00:25;10.05;;;6.80;;
65599;SDS011;52272;-29.642;-50.764;2022-07-24T05:02:55;10.30;;;7.00;;
65599;SDS011;52272;-29.642;-50.764;2022-07-24T05:05:25;8.70;;;6.57;;
65599;SDS011;52272;-29.642;-50.764;2022-07-24T05:07:55;11.30;;;6.55;;
65599;SDS011;52272;-29.642;-50.764;2022-07-24T05:10:26;8.48;;;6.30;;
65599;SDS011;52272;-29.642;-50.764;2022-07-24T05:13:01;11.90;;;7.28;;
65599;SDS011;52272;-29.642;-50.764;2022-07-24T05:15:31;11.48;;;6.32;;
65599;SDS011;52272;-29.642;-50.764;2022-07-24T05:18:01;10.07;;;6.50;;
65599;SDS011;52272;-29.642;-50.764;2022-07-24T05:20:32;11.15;;;7.07;;
65599;SDS011;52272;-29.642;-50.764;2022-07-24T05:23:02;15.07;;;8.60;;
65599;SDS011;52272;-29.642;-50.764;2022-07-24T05:25:33;10.05;;;7.75;;
65599;SDS011;52272;-29.642;-50.764;2022-07-24T05:28:03;14.40;;;8.63;;
65599;SDS011;52272;-29.642;-50.764;2022-07-24T05:30:34;10.48;;;7.65;;
65599;SDS011;52272;-29.642;-50.764;2022-07-24T05:35:33;9.38;;;7.38;;
65599;SDS011;52272;-29.642;-50.764;2022-07-24T05:38:06;10.23;;;7.40;;
65599;SDS011;52272;-29.642;-50.764;2022-07-24T05:40:36;12.27;;;7.25;;
65599;SDS011;52272;-29.642;-50.764;2022-07-24T05:43:07;16.30;;;7.45;;
65599;SDS011;52272;-29.642;-50.764;2022-07-24T05:45:37;13.93;;;7.18;;
65599;SDS011;52272;-29.642;-50.764;2022-07-24T05:48:07;10.73;;;7.28;;
65599;SDS011;52272;-29.642;-50.764;2022-07-24T05:50:37;13.55;;;7.68;;
65599;SDS011;52272;-29.642;-50.764;2022-07-24T05:53:08;12.70;;;7.72;;
65599;SDS011;52272;-29.642;-50.764;2022-07-24T05:55:38;11.27;;;7.07;;
65599;SDS011;52272;-29.642;-50.764;2022-07-24T05:58:08;10.43;;;7.05;;
65599;SDS011;52272;-29.642;-50.764;2022-07-24T06:00:38;10.23;;;6.78;;
65599;SDS011;52272;-29.642;-50.764;2022-07-24T06:03:09;12.32;;;7.68;;
65599;SDS011;52272;-29.642;-50.764;2022-07-24T06:05:39;11.18;;;7.43;;
65599;SDS011;52272;-29.642;-50.764;2022-07-24T06:08:10;11.25;;;7.28;;
65599;SDS011;52272;-29.642;-50.764;2022-07-24T06:10:40;14.02;;;7.40;;
65599;SDS011;52272;-29.642;-50.764;2022-07-24T06:13:10;10.52;;;7.72;;
65599;SDS011;52272;-29.642;-50.764;2022-07-24T06:15:43;10.05;;;7.65;;
65599;SDS011;52272;-29.642;-50.764;2022-07-24T06:18:13;9.35;;;7.47;;
65599;SDS011;52272;-29.642;-50.764;2022-07-24T06:20:46;15.35;;;8.38;;
65599;SDS011;52272;-29.642;-50.764;2022-07-24T06:23:16;9.98;;;8.00;;
65599;SDS011;52272;-29.642;-50.764;2022-07-24T06:25:49;12.15;;;7.63;;
65599;SDS011;52272;-29.642;-50.764;2022-07-24T06:28:19;12.38;;;7.38;;
65599;SDS011;52272;-29.642;-50.764;2022-07-24T06:30:52;11.52;;;7.43;;
65599;SDS011;52272;-29.642;-50.764;2022-07-24T06:33:26;12.63;;;7.15;;
65599;SDS011;52272;-29.642;-50.764;2022-07-24T06:35:57;12.82;;;7.65;;
65599;SDS011;52272;-29.642;-50.764;2022-07-24T06:38:28;12.38;;;7.47;;
65599;SDS011;52272;-29.642;-50.764;2022-07-24T06:40:59;9.75;;;6.55;;
65599;SDS011;52272;-29.642;-50.764;2022-07-24T06:43:29;16.85;;;9.40;;
65599;SDS011;52272;-29.642;-50.764;2022-07-24T06:45:59;9.88;;;6.90;;
65599;SDS011;52272;-29.642;-50.764;2022-07-24T06:48:29;9.20;;;6.57;;
65599;SDS011;52272;-29.642;-50.764;2022-07-24T06:51:00;8.70;;;5.50;;
65599;SDS011;52272;-29.642;-50.764;2022-07-24T06:53:30;50.28;;;7.82;;
65599;SDS011;52272;-29.642;-50.764;2022-07-24T06:56:01;9.35;;;6.07;;
65599;SDS011;52272;-29.642;-50.764;2022-07-24T06:58:31;11.90;;;6.38;;
65599;SDS011;52272;-29.642;-50.764;2022-07-24T07:01:02;13.52;;;7.35;;
65599;SDS011;52272;-29.642;-50.764;2022-07-24T07:03:32;10.48;;;7.43;;
65599;SDS011;52272;-29.642;-50.764;2022-07-24T07:06:03;9.52;;;5.97;;
65599;SDS011;52272;-29.642;-50.764;2022-07-24T07:08:33;11.57;;;6.43;;
65599;SDS011;52272;-29.642;-50.764;2022-07-24T07:11:04;11.73;;;6.85;;
65599;SDS011;52272;-29.642;-50.764;2022-07-24T07:13:34;18.67;;;6.57;;
65599;SDS011;52272;-29.642;-50.764;2022-07-24T07:16:05;10.07;;;5.88;;
65599;SDS011;52272;-29.642;-50.764;2022-07-24T07:18:35;10.65;;;5.90;;
65599;SDS011;52272;-29.642;-50.764;2022-07-24T07:21:07;10.68;;;5.93;;
65599;SDS011;52272;-29.642;-50.764;2022-07-24T07:23:37;9.30;;;6.00;;
65599;SDS011;52272;-29.642;-50.764;2022-07-24T07:26:08;13.60;;;6.13;;
65599;SDS011;52272;-29.642;-50.764;2022-07-24T07:28:38;9.60;;;6.38;;
65599;SDS011;52272;-29.642;-50.764;2022-07-24T07:31:09;8.93;;;6.07;;
65599;SDS011;52272;-29.642;-50.764;2022-07-24T07:33:39;9.45;;;6.03;;
65599;SDS011;52272;-29.642;-50.764;2022-07-24T07:36:09;13.73;;;6.13;;
65599;SDS011;52272;-29.642;-50.764;2022-07-24T07:38:40;9.40;;;6.38;;
65599;SDS011;52272;-29.642;-50.764;2022-07-24T07:41:10;8.82;;;6.40;;
65599;SDS011;52272;-29.642;-50.764;2022-07-24T07:43:41;10.02;;;6.30;;
65599;SDS011;52272;-29.642;-50.764;2022-07-24T07:46:11;10.15;;;6.78;;
65599;SDS011;52272;-29.642;-50.764;2022-07-24T07:48:42;11.60;;;7.18;;
65599;SDS011;52272;-29.642;-50.764;2022-07-24T07:51:12;12.05;;;6.60;;
65599;SDS011;52272;-29.642;-50.764;2022-07-24T07:53:49;14.13;;;7.22;;
65599;SDS011;52272;-29.642;-50.764;2022-07-24T07:56:19;11.95;;;7.07;;
65599;SDS011;52272;-29.642;-50.764;2022-07-24T07:58:52;11.25;;;7.13;;
65599;SDS011;52272;-29.642;-50.764;2022-07-24T08:01:28;9.05;;;6.53;;
65599;SDS011;52272;-29.642;-50.764;2022-07-24T08:03:58;10.25;;;6.22;;
65599;SDS011;52272;-29.642;-50.764;2022-07-24T08:06:29;14.43;;;6.20;;
65599;SDS011;52272;-29.642;-50.764;2022-07-24T08:08:59;10.88;;;6.20;;
65599;SDS011;52272;-29.642;-50.764;2022-07-24T08:11:31;8.30;;;6.47;;
65599;SDS011;52272;-29.642;-50.764;2022-07-24T08:14:02;8.70;;;5.03;;
65599;SDS011;52272;-29.642;-50.764;2022-07-24T08:16:34;6.82;;;5.07;;
65599;SDS011;52272;-29.642;-50.764;2022-07-24T08:19:04;5.93;;;4.60;;
65599;SDS011;52272;-29.642;-50.764;2022-07-24T08:21:36;5.32;;;4.38;;
65599;SDS011;52272;-29.642;-50.764;2022-07-24T08:24:07;6.50;;;4.18;;
65599;SDS011;52272;-29.642;-50.764;2022-07-24T08:26:37;8.65;;;4.93;;
65599;SDS011;52272;-29.642;-50.764;2022-07-24T08:29:08;6.18;;;4.65;;
65599;SDS011;52272;-29.642;-50.764;2022-07-24T08:31:38;7.82;;;4.75;;
65599;SDS011;52272;-29.642;-50.764;2022-07-24T08:34:08;7.60;;;4.30;;
65599;SDS011;52272;-29.642;-50.764;2022-07-24T08:36:39;6.82;;;4.57;;
65599;SDS011;52272;-29.642;-50.764;2022-07-24T08:39:09;10.23;;;4.53;;
65599;SDS011;52272;-29.642;-50.764;2022-07-24T08:41:42;5.68;;;4.28;;
65599;SDS011;52272;-29.642;-50.764;2022-07-24T08:44:13;10.38;;;5.00;;
65599;SDS011;52272;-29.642;-50.764;2022-07-24T08:46:43;8.98;;;5.57;;
65599;SDS011;52272;-29.642;-50.764;2022-07-24T08:49:14;7.50;;;5.18;;
65599;SDS011;52272;-29.642;-50.764;2022-07-24T08:51:45;8.38;;;4.85;;
65599;SDS011;52272;-29.642;-50.764;2022-07-24T08:54:18;8.13;;;4.72;;
65599;SDS011;52272;-29.642;-50.764;2022-07-24T08:56:49;7.85;;;4.95;;
65599;SDS011;52272;-29.642;-50.764;2022-07-24T08:59:21;8.93;;;4.10;;
65599;SDS011;52272;-29.642;-50.764;2022-07-24T09:01:54;6.57;;;4.40;;
65599;SDS011;52272;-29.642;-50.764;2022-07-24T09:04:57;8.50;;;4.22;;
65599;SDS011;52272;-29.642;-50.764;2022-07-24T09:07:28;8.98;;;4.20;;
65599;SDS011;52272;-29.642;-50.764;2022-07-24T09:10:01;7.50;;;4.15;;
65599;SDS011;52272;-29.642;-50.764;2022-07-24T09:12:36;6.38;;;4.20;;
65599;SDS011;52272;-29.642;-50.764;2022-07-24T09:15:13;7.82;;;4.15;;
65599;SDS011;52272;-29.642;-50.764;2022-07-24T09:17:52;12.00;;;4.30;;
65599;SDS011;52272;-29.642;-50.764;2022-07-24T09:20:25;4.97;;;4.10;;
65599;SDS011;52272;-29.642;-50.764;2022-07-24T09:22:59;4.57;;;3.70;;
65599;SDS011;52272;-29.642;-50.764;2022-07-24T09:25:34;5.32;;;3.58;;
65599;SDS011;52272;-29.642;-50.764;2022-07-24T09:28:05;4.03;;;3.63;;
65599;SDS011;52272;-29.642;-50.764;2022-07-24T09:30:37;3.47;;;3.00;;
65599;SDS011;52272;-29.642;-50.764;2022-07-24T09:33:18;4.45;;;3.63;;
65599;SDS011;52272;-29.642;-50.764;2022-07-24T09:35:50;5.00;;;3.65;;
65599;SDS011;52272;-29.642;-50.764;2022-07-24T09:38:25;9.75;;;4.15;;
65599;SDS011;52272;-29.642;-50.764;2022-07-24T09:40:56;6.22;;;4.22;;
65599;SDS011;52272;-29.642;-50.764;2022-07-24T09:43:30;7.30;;;4.40;;
65599;SDS011;52272;-29.642;-50.764;2022-07-24T09:48:40;9.82;;;4.68;;
65599;SDS011;52272;-29.642;-50.764;2022-07-24T09:51:25;10.25;;;4.22;;
65599;SDS011;52272;-29.642;-50.764;2022-07-24T09:53:58;6.15;;;4.10;;
65599;SDS011;52272;-29.642;-50.764;2022-07-24T09:56:29;10.35;;;4.25;;
65599;SDS011;52272;-29.642;-50.764;2022-07-24T09:59:00;7.40;;;4.47;;
65599;SDS011;52272;-29.642;-50.764;2022-07-24T10:01:36;8.57;;;4.43;;
65599;SDS011;52272;-29.642;-50.764;2022-07-24T10:04:13;7.40;;;4.30;;
65599;SDS011;52272;-29.642;-50.764;2022-07-24T10:06:45;8.75;;;4.40;;
65599;SDS011;52272;-29.642;-50.764;2022-07-24T10:09:20;9.43;;;5.35;;
65599;SDS011;52272;-29.642;-50.764;2022-07-24T10:11:56;9.88;;;4.38;;
65599;SDS011;52272;-29.642;-50.764;2022-07-24T10:14:28;8.25;;;4.80;;
65599;SDS011;52272;-29.642;-50.764;2022-07-24T10:17:06;6.75;;;4.15;;
65599;SDS011;52272;-29.642;-50.764;2022-07-24T10:19:51;9.68;;;4.43;;
65599;SDS011;52272;-29.642;-50.764;2022-07-24T10:22:22;7.70;;;3.95;;
65599;SDS011;52272;-29.642;-50.764;2022-07-24T10:27:30;6.57;;;4.43;;
65599;SDS011;52272;-29.642;-50.764;2022-07-24T10:30:05;8.73;;;4.70;;
65599;SDS011;52272;-29.642;-50.764;2022-07-24T10:32:38;7.88;;;4.50;;
65599;SDS011;52272;-29.642;-50.764;2022-07-24T10:35:17;10.95;;;4.88;;
65599;SDS011;52272;-29.642;-50.764;2022-07-24T10:40:42;9.55;;;4.55;;
65599;SDS011;52272;-29.642;-50.764;2022-07-24T10:43:17;6.70;;;4.18;;
65599;SDS011;52272;-29.642;-50.764;2022-07-24T10:48:29;7.00;;;4.25;;
65599;SDS011;52272;-29.642;-50.764;2022-07-24T10:51:03;8.90;;;4.60;;
65599;SDS011;52272;-29.642;-50.764;2022-07-24T10:53:42;10.27;;;4.57;;
65599;SDS011;52272;-29.642;-50.764;2022-07-24T11:01:38;10.90;;;5.05;;
65599;SDS011;52272;-29.642;-50.764;2022-07-24T11:06:54;8.32;;;4.10;;
65599;SDS011;52272;-29.642;-50.764;2022-07-24T11:09:30;5.30;;;4.13;;
65599;SDS011;52272;-29.642;-50.764;2022-07-24T11:20:08;6.13;;;4.55;;
65599;SDS011;52272;-29.642;-50.764;2022-07-24T11:22:45;8.05;;;4.85;;
65599;SDS011;52272;-29.642;-50.764;2022-07-24T11:25:35;6.65;;;5.28;;
65599;SDS011;52272;-29.642;-50.764;2022-07-24T11:30:40;8.77;;;5.30;;
65599;SDS011;52272;-29.642;-50.764;2022-07-24T11:33:16;6.05;;;4.68;;
65599;SDS011;52272;-29.642;-50.764;2022-07-24T11:35:50;7.60;;;4.68;;
65599;SDS011;52272;-29.642;-50.764;2022-07-24T11:38:20;8.02;;;4.57;;
65599;SDS011;52272;-29.642;-50.764;2022-07-24T11:41:05;10.20;;;5.40;;
65599;SDS011;52272;-29.642;-50.764;2022-07-24T11:43:35;7.85;;;4.82;;
65599;SDS011;52272;-29.642;-50.764;2022-07-24T11:46:32;11.25;;;5.55;;
65599;SDS011;52272;-29.642;-50.764;2022-07-24T11:49:04;9.38;;;5.15;;
65599;SDS011;52272;-29.642;-50.764;2022-07-24T11:54:20;8.48;;;4.95;;
65599;SDS011;52272;-29.642;-50.764;2022-07-24T11:56:56;7.38;;;4.60;;
65599;SDS011;52272;-29.642;-50.764;2022-07-24T12:02:06;8.00;;;4.78;;
65599;SDS011;52272;-29.642;-50.764;2022-07-24T12:04:38;12.50;;;4.78;;
65599;SDS011;52272;-29.642;-50.764;2022-07-24T12:07:20;11.68;;;4.80;;
65599;SDS011;52272;-29.642;-50.764;2022-07-24T12:09:53;8.77;;;4.85;;
65599;SDS011;52272;-29.642;-50.764;2022-07-24T12:17:53;8.90;;;4.55;;
65599;SDS011;52272;-29.642;-50.764;2022-07-24T12:23:06;10.35;;;5.32;;
65599;SDS011;52272;-29.642;-50.764;2022-07-24T12:25:38;7.60;;;4.97;;
65599;SDS011;52272;-29.642;-50.764;2022-07-24T12:30:46;7.78;;;5.00;;
65599;SDS011;52272;-29.642;-50.764;2022-07-24T12:36:00;9.07;;;5.38;;
65599;SDS011;52272;-29.642;-50.764;2022-07-24T12:38:52;11.45;;;4.97;;
65599;SDS011;52272;-29.642;-50.764;2022-07-24T12:41:24;11.52;;;5.47;;
65599;SDS011;52272;-29.642;-50.764;2022-07-24T12:43:57;10.75;;;4.60;;
65599;SDS011;52272;-29.642;-50.764;2022-07-24T12:46:36;13.73;;;5.28;;
65599;SDS011;52272;-29.642;-50.764;2022-07-24T12:49:13;8.07;;;4.65;;
65599;SDS011;52272;-29.642;-50.764;2022-07-24T12:54:29;11.43;;;4.75;;
65599;SDS011;52272;-29.642;-50.764;2022-07-24T12:57:06;8.50;;;4.53;;
65599;SDS011;52272;-29.642;-50.764;2022-07-24T12:59:44;8.85;;;4.78;;
65599;SDS011;52272;-29.642;-50.764;2022-07-24T13:02:21;10.02;;;4.95;;
65599;SDS011;52272;-29.642;-50.764;2022-07-24T13:04:56;9.35;;;4.85;;
65599;SDS011;52272;-29.642;-50.764;2022-07-24T13:07:27;8.50;;;5.75;;
65599;SDS011;52272;-29.642;-50.764;2022-07-24T13:09:58;9.30;;;5.30;;
65599;SDS011;52272;-29.642;-50.764;2022-07-24T13:12:28;11.02;;;6.07;;
65599;SDS011;52272;-29.642;-50.764;2022-07-24T13:14:59;11.75;;;6.97;;
65599;SDS011;52272;-29.642;-50.764;2022-07-24T13:17:29;14.15;;;7.72;;
65599;SDS011;52272;-29.642;-50.764;2022-07-24T13:19:59;12.98;;;7.53;;
65599;SDS011;52272;-29.642;-50.764;2022-07-24T13:22:31;12.73;;;7.72;;
65599;SDS011;52272;-29.642;-50.764;2022-07-24T13:25:02;13.60;;;5.75;;
65599;SDS011;52272;-29.642;-50.764;2022-07-24T13:27:32;12.38;;;6.88;;
65599;SDS011;52272;-29.642;-50.764;2022-07-24T13:30:23;10.00;;;4.95;;
65599;SDS011;52272;-29.642;-50.764;2022-07-24T13:32:55;9.70;;;4.97;;
65599;SDS011;52272;-29.642;-50.764;2022-07-24T13:35:36;10.95;;;5.15;;
65599;SDS011;52272;-29.642;-50.764;2022-07-24T13:38:13;10.57;;;5.13;;
65599;SDS011;52272;-29.642;-50.764;2022-07-24T13:40:52;9.50;;;5.38;;
65599;SDS011;52272;-29.642;-50.764;2022-07-24T13:43:39;12.35;;;5.22;;
65599;SDS011;52272;-29.642;-50.764;2022-07-24T13:46:16;8.40;;;4.95;;
65599;SDS011;52272;-29.642;-50.764;2022-07-24T13:48:52;11.43;;;5.32;;
65599;SDS011;52272;-29.642;-50.764;2022-07-24T13:51:27;8.80;;;4.70;;
65599;SDS011;52272;-29.642;-50.764;2022-07-24T13:54:08;9.35;;;4.80;;
65599;SDS011;52272;-29.642;-50.764;2022-07-24T13:56:45;7.90;;;4.60;;
65599;SDS011;52272;-29.642;-50.764;2022-07-24T13:59:21;8.13;;;4.55;;
65599;SDS011;52272;-29.642;-50.764;2022-07-24T14:01:55;14.30;;;5.32;;
65599;SDS011;52272;-29.642;-50.764;2022-07-24T14:04:34;9.10;;;4.65;;
65599;SDS011;52272;-29.642;-50.764;2022-07-24T14:07:12;11.27;;;4.93;;
65599;SDS011;52272;-29.642;-50.764;2022-07-24T14:09:52;12.45;;;5.40;;
65599;SDS011;52272;-29.642;-50.764;2022-07-24T14:12:31;7.30;;;5.10;;
65599;SDS011;52272;-29.642;-50.764;2022-07-24T14:15:09;10.02;;;4.47;;
65599;SDS011;52272;-29.642;-50.764;2022-07-24T14:17:46;6.93;;;5.20;;
65599;SDS011;52272;-29.642;-50.764;2022-07-24T14:20:30;6.90;;;4.85;;
65599;SDS011;52272;-29.642;-50.764;2022-07-24T14:23:10;7.35;;;5.05;;
65599;SDS011;52272;-29.642;-50.764;2022-07-24T14:25:47;9.07;;;5.10;;
65599;SDS011;52272;-29.642;-50.764;2022-07-24T14:28:27;12.48;;;5.78;;
65599;SDS011;52272;-29.642;-50.764;2022-07-24T14:31:05;9.57;;;5.40;;
65599;SDS011;52272;-29.642;-50.764;2022-07-24T14:33:37;9.90;;;5.32;;
65599;SDS011;52272;-29.642;-50.764;2022-07-24T14:36:07;8.95;;;5.43;;
65599;SDS011;52272;-29.642;-50.764;2022-07-24T14:38:37;7.13;;;5.28;;
65599;SDS011;52272;-29.642;-50.764;2022-07-24T14:41:08;7.70;;;4.78;;
65599;SDS011;52272;-29.642;-50.764;2022-07-24T14:43:38;6.93;;;4.85;;
65599;SDS011;52272;-29.642;-50.764;2022-07-24T14:46:08;7.20;;;5.15;;
65599;SDS011;52272;-29.642;-50.764;2022-07-24T14:48:39;12.68;;;5.97;;
65599;SDS011;52272;-29.642;-50.764;2022-07-24T14:51:10;11.77;;;5.88;;
65599;SDS011;52272;-29.642;-50.764;2022-07-24T14:53:40;10.63;;;6.30;;
65599;SDS011;52272;-29.642;-50.764;2022-07-24T14:56:11;9.27;;;5.88;;
65599;SDS011;52272;-29.642;-50.764;2022-07-24T14:58:42;11.10;;;5.78;;
65599;SDS011;52272;-29.642;-50.764;2022-07-24T15:01:12;9.98;;;5.72;;
65599;SDS011;52272;-29.642;-50.764;2022-07-24T15:03:44;8.43;;;6.10;;
65599;SDS011;52272;-29.642;-50.764;2022-07-24T15:06:14;9.90;;;5.97;;
65599;SDS011;52272;-29.642;-50.764;2022-07-24T15:08:44;10.32;;;5.65;;
65599;SDS011;52272;-29.642;-50.764;2022-07-24T15:11:17;7.20;;;5.20;;
65599;SDS011;52272;-29.642;-50.764;2022-07-24T15:13:53;9.88;;;5.55;;
65599;SDS011;52272;-29.642;-50.764;2022-07-24T15:16:24;9.60;;;5.32;;
65599;SDS011;52272;-29.642;-50.764;2022-07-24T15:18:54;7.40;;;5.28;;
65599;SDS011;52272;-29.642;-50.764;2022-07-24T15:21:24;8.13;;;5.57;;
65599;SDS011;52272;-29.642;-50.764;2022-07-24T15:23:55;8.68;;;5.72;;
65599;SDS011;52272;-29.642;-50.764;2022-07-24T15:26:25;10.55;;;5.75;;
65599;SDS011;52272;-29.642;-50.764;2022-07-24T15:28:55;9.57;;;5.13;;
65599;SDS011;52272;-29.642;-50.764;2022-07-24T15:31:25;10.43;;;5.15;;
65599;SDS011;52272;-29.642;-50.764;2022-07-24T15:33:56;9.80;;;5.25;;
65599;SDS011;52272;-29.642;-50.764;2022-07-24T15:36:26;8.15;;;5.05;;
65599;SDS011;52272;-29.642;-50.764;2022-07-24T15:39:00;10.75;;;5.00;;
65599;SDS011;52272;-29.642;-50.764;2022-07-24T15:41:30;10.77;;;5.00;;